sensor_id;sensor_type;location;lat;lon;timestamp;P1;durP1;ratioP1;P2;durP2;ratioP2
28762;SDS011;15918;51.270;6.522;2022-11-15T00:01:40;14.70;;;11.30;;
28762;SDS011;15918;51.270;6.522;2022-11-15T00:04:06;12.60;;;11.13;;
28762;SDS011;15918;51.270;6.522;2022-11-15T00:06:32;14.65;;;11.10;;
28762;SDS011;15918;51.270;6.522;2022-11-15T00:08:58;15.57;;;11.30;;
28762;SDS011;15918;51.270;6.522;2022-11-15T00:11:24;13.52;;;10.80;;
28762;SDS011;15918;51.270;6.522;2022-11-15T00:13:49;15.98;;;11.60;;
28762;SDS011;15918;51.270;6.522;2022-11-15T00:16:15;14.40;;;11.27;;
28762;SDS011;15918;51.270;6.522;2022-11-15T00:18:41;14.18;;;11.50;;
28762;SDS011;15918;51.270;6.522;2022-11-15T00:21:09;14.23;;;11.30;;
28762;SDS011;15918;51.270;6.522;2022-11-15T00:23:36;11.93;;;10.65;;
28762;SDS011;15918;51.270;6.522;2022-11-15T00:26:02;12.00;;;10.70;;
28762;SDS011;15918;51.270;6.522;2022-11-15T00:28:28;11.90;;;10.45;;
28762;SDS011;15918;51.270;6.522;2022-11-15T00:30:59;11.88;;;10.48;;
28762;SDS011;15918;51.270;6.522;2022-11-15T00:33:26;12.57;;;10.50;;
28762;SDS011;15918;51.270;6.522;2022-11-15T00:35:51;13.02;;;10.73;;
28762;SDS011;15918;51.270;6.522;2022-11-15T00:38:17;12.60;;;10.35;;
28762;SDS011;15918;51.270;6.522;2022-11-15T00:40:42;13.13;;;11.07;;
28762;SDS011;15918;51.270;6.522;2022-11-15T00:43:08;13.23;;;11.32;;
28762;SDS011;15918;51.270;6.522;2022-11-15T00:45:33;11.38;;;10.00;;
28762;SDS011;15918;51.270;6.522;2022-11-15T00:47:59;13.07;;;10.85;;
28762;SDS011;15918;51.270;6.522;2022-11-15T00:50:25;11.93;;;10.25;;
28762;SDS011;15918;51.270;6.522;2022-11-15T00:52:50;12.02;;;10.07;;
28762;SDS011;15918;51.270;6.522;2022-11-15T00:55:16;11.10;;;9.85;;
28762;SDS011;15918;51.270;6.522;2022-11-15T00:57:42;13.95;;;10.43;;
28762;SDS011;15918;51.270;6.522;2022-11-15T01:00:08;17.00;;;10.27;;
28762;SDS011;15918;51.270;6.522;2022-11-15T01:02:34;12.23;;;10.48;;
28762;SDS011;15918;51.270;6.522;2022-11-15T01:05:00;10.52;;;9.30;;
28762;SDS011;15918;51.270;6.522;2022-11-15T01:07:26;15.68;;;10.13;;
28762;SDS011;15918;51.270;6.522;2022-11-15T01:09:51;11.40;;;10.23;;
28762;SDS011;15918;51.270;6.522;2022-11-15T01:12:17;11.07;;;9.85;;
28762;SDS011;15918;51.270;6.522;2022-11-15T01:14:42;9.80;;;8.68;;
28762;SDS011;15918;51.270;6.522;2022-11-15T01:17:08;12.20;;;9.73;;
28762;SDS011;15918;51.270;6.522;2022-11-15T01:19:33;10.02;;;8.93;;
28762;SDS011;15918;51.270;6.522;2022-11-15T01:21:59;10.65;;;9.55;;
28762;SDS011;15918;51.270;6.522;2022-11-15T01:24:25;10.25;;;9.02;;
28762;SDS011;15918;51.270;6.522;2022-11-15T01:26:50;14.80;;;10.38;;
28762;SDS011;15918;51.270;6.522;2022-11-15T01:29:16;12.68;;;9.70;;
28762;SDS011;15918;51.270;6.522;2022-11-15T01:31:41;10.38;;;8.70;;
28762;SDS011;15918;51.270;6.522;2022-11-15T01:34:07;18.13;;;9.90;;
28762;SDS011;15918;51.270;6.522;2022-11-15T01:36:33;12.38;;;9.15;;
28762;SDS011;15918;51.270;6.522;2022-11-15T01:38:59;11.65;;;9.73;;
28762;SDS011;15918;51.270;6.522;2022-11-15T01:41:25;12.68;;;10.43;;
28762;SDS011;15918;51.270;6.522;2022-11-15T01:43:53;11.30;;;9.80;;
28762;SDS011;15918;51.270;6.522;2022-11-15T01:48:46;11.68;;;9.50;;
28762;SDS011;15918;51.270;6.522;2022-11-15T01:51:13;10.23;;;9.15;;
28762;SDS011;15918;51.270;6.522;2022-11-15T01:53:43;11.75;;;9.15;;
28762;SDS011;15918;51.270;6.522;2022-11-15T01:56:13;11.25;;;9.15;;
28762;SDS011;15918;51.270;6.522;2022-11-15T01:58:41;14.05;;;10.27;;
28762;SDS011;15918;51.270;6.522;2022-11-15T02:01:10;12.75;;;9.55;;
28762;SDS011;15918;51.270;6.522;2022-11-15T02:03:41;11.05;;;9.10;;
28762;SDS011;15918;51.270;6.522;2022-11-15T02:06:20;11.55;;;8.85;;
28762;SDS011;15918;51.270;6.522;2022-11-15T02:08:46;13.48;;;10.20;;
28762;SDS011;15918;51.270;6.522;2022-11-15T02:11:12;12.63;;;9.20;;
28762;SDS011;15918;51.270;6.522;2022-11-15T02:13:38;11.32;;;9.10;;
28762;SDS011;15918;51.270;6.522;2022-11-15T02:18:34;10.35;;;8.50;;
28762;SDS011;15918;51.270;6.522;2022-11-15T02:29:22;14.93;;;8.85;;
28762;SDS011;15918;51.270;6.522;2022-11-15T02:34:33;10.02;;;8.55;;
28762;SDS011;15918;51.270;6.522;2022-11-15T02:37:11;12.23;;;8.50;;
28762;SDS011;15918;51.270;6.522;2022-11-15T02:45:17;9.57;;;8.57;;
28762;SDS011;15918;51.270;6.522;2022-11-15T02:47:47;10.13;;;8.95;;
28762;SDS011;15918;51.270;6.522;2022-11-15T02:50:18;10.82;;;8.70;;
28762;SDS011;15918;51.270;6.522;2022-11-15T02:52:48;11.60;;;9.18;;
28762;SDS011;15918;51.270;6.522;2022-11-15T02:55:56;10.07;;;8.48;;
28762;SDS011;15918;51.270;6.522;2022-11-15T03:00:56;11.27;;;8.63;;
28762;SDS011;15918;51.270;6.522;2022-11-15T03:06:50;12.85;;;8.75;;
28762;SDS011;15918;51.270;6.522;2022-11-15T03:09:33;12.13;;;9.00;;
28762;SDS011;15918;51.270;6.522;2022-11-15T03:12:37;9.70;;;8.20;;
28762;SDS011;15918;51.270;6.522;2022-11-15T03:17:54;10.85;;;8.75;;
28762;SDS011;15918;51.270;6.522;2022-11-15T03:20:25;9.93;;;8.45;;
28762;SDS011;15918;51.270;6.522;2022-11-15T03:22:53;11.25;;;8.93;;
28762;SDS011;15918;51.270;6.522;2022-11-15T03:25:22;12.10;;;8.57;;
28762;SDS011;15918;51.270;6.522;2022-11-15T03:27:52;11.77;;;8.63;;
28762;SDS011;15918;51.270;6.522;2022-11-15T03:30:20;10.15;;;9.10;;
28762;SDS011;15918;51.270;6.522;2022-11-15T03:32:48;10.48;;;9.00;;
28762;SDS011;15918;51.270;6.522;2022-11-15T03:35:21;11.77;;;8.30;;
28762;SDS011;15918;51.270;6.522;2022-11-15T03:37:57;10.65;;;8.73;;
28762;SDS011;15918;51.270;6.522;2022-11-15T03:45:23;11.75;;;8.95;;
28762;SDS011;15918;51.270;6.522;2022-11-15T03:50:38;12.82;;;9.05;;
28762;SDS011;15918;51.270;6.522;2022-11-15T03:53:04;12.15;;;9.43;;
28762;SDS011;15918;51.270;6.522;2022-11-15T03:55:31;12.10;;;9.25;;
28762;SDS011;15918;51.270;6.522;2022-11-15T03:57:57;12.65;;;9.35;;
28762;SDS011;15918;51.270;6.522;2022-11-15T04:00:24;11.80;;;9.55;;
28762;SDS011;15918;51.270;6.522;2022-11-15T04:02:50;12.20;;;9.98;;
28762;SDS011;15918;51.270;6.522;2022-11-15T04:05:15;10.23;;;8.73;;
28762;SDS011;15918;51.270;6.522;2022-11-15T04:07:41;10.15;;;8.85;;
28762;SDS011;15918;51.270;6.522;2022-11-15T04:10:06;11.70;;;8.73;;
28762;SDS011;15918;51.270;6.522;2022-11-15T04:12:37;11.68;;;8.80;;
28762;SDS011;15918;51.270;6.522;2022-11-15T04:15:08;12.52;;;10.10;;
28762;SDS011;15918;51.270;6.522;2022-11-15T04:17:36;10.18;;;8.98;;
28762;SDS011;15918;51.270;6.522;2022-11-15T04:20:17;12.50;;;10.18;;
28762;SDS011;15918;51.270;6.522;2022-11-15T04:23:07;12.52;;;9.63;;
28762;SDS011;15918;51.270;6.522;2022-11-15T04:25:58;13.30;;;9.48;;
28762;SDS011;15918;51.270;6.522;2022-11-15T04:28:25;9.65;;;8.57;;
28762;SDS011;15918;51.270;6.522;2022-11-15T04:30:51;13.25;;;9.55;;
28762;SDS011;15918;51.270;6.522;2022-11-15T04:33:17;9.43;;;8.20;;
28762;SDS011;15918;51.270;6.522;2022-11-15T04:35:43;10.20;;;9.20;;
28762;SDS011;15918;51.270;6.522;2022-11-15T04:38:29;9.55;;;8.10;;
28762;SDS011;15918;51.270;6.522;2022-11-15T04:40:54;13.63;;;9.05;;
28762;SDS011;15918;51.270;6.522;2022-11-15T04:43:20;10.35;;;8.25;;
28762;SDS011;15918;51.270;6.522;2022-11-15T04:45:45;10.57;;;8.00;;
28762;SDS011;15918;51.270;6.522;2022-11-15T04:48:11;9.95;;;8.30;;
28762;SDS011;15918;51.270;6.522;2022-11-15T04:50:36;11.38;;;8.95;;
28762;SDS011;15918;51.270;6.522;2022-11-15T04:53:02;10.50;;;8.05;;
28762;SDS011;15918;51.270;6.522;2022-11-15T04:55:27;9.65;;;8.65;;
28762;SDS011;15918;51.270;6.522;2022-11-15T04:58:00;12.15;;;9.23;;
28762;SDS011;15918;51.270;6.522;2022-11-15T05:00:26;10.93;;;8.23;;
28762;SDS011;15918;51.270;6.522;2022-11-15T05:02:52;10.35;;;9.02;;
28762;SDS011;15918;51.270;6.522;2022-11-15T05:05:36;11.73;;;8.85;;
28762;SDS011;15918;51.270;6.522;2022-11-15T05:08:02;11.45;;;9.27;;
28762;SDS011;15918;51.270;6.522;2022-11-15T05:10:28;10.13;;;9.07;;
28762;SDS011;15918;51.270;6.522;2022-11-15T05:12:54;10.85;;;9.70;;
28762;SDS011;15918;51.270;6.522;2022-11-15T05:15:19;12.75;;;9.02;;
28762;SDS011;15918;51.270;6.522;2022-11-15T05:17:45;10.63;;;8.80;;
28762;SDS011;15918;51.270;6.522;2022-11-15T05:20:11;12.35;;;9.50;;
28762;SDS011;15918;51.270;6.522;2022-11-15T05:22:37;9.80;;;8.80;;
28762;SDS011;15918;51.270;6.522;2022-11-15T05:25:03;9.52;;;8.43;;
28762;SDS011;15918;51.270;6.522;2022-11-15T05:27:29;9.70;;;8.52;;
28762;SDS011;15918;51.270;6.522;2022-11-15T05:29:55;10.18;;;8.45;;
28762;SDS011;15918;51.270;6.522;2022-11-15T05:32:21;13.38;;;8.57;;
28762;SDS011;15918;51.270;6.522;2022-11-15T05:34:46;11.50;;;8.48;;
28762;SDS011;15918;51.270;6.522;2022-11-15T05:37:13;12.10;;;8.68;;
28762;SDS011;15918;51.270;6.522;2022-11-15T05:39:39;10.52;;;8.88;;
28762;SDS011;15918;51.270;6.522;2022-11-15T05:42:09;9.93;;;8.23;;
28762;SDS011;15918;51.270;6.522;2022-11-15T05:44:36;11.60;;;8.55;;
28762;SDS011;15918;51.270;6.522;2022-11-15T05:47:06;9.57;;;8.68;;
28762;SDS011;15918;51.270;6.522;2022-11-15T05:49:36;10.77;;;8.55;;
28762;SDS011;15918;51.270;6.522;2022-11-15T05:52:05;11.70;;;9.20;;
28762;SDS011;15918;51.270;6.522;2022-11-15T05:54:32;11.38;;;9.05;;
28762;SDS011;15918;51.270;6.522;2022-11-15T05:57:00;11.73;;;8.88;;
28762;SDS011;15918;51.270;6.522;2022-11-15T05:59:27;10.18;;;9.18;;
28762;SDS011;15918;51.270;6.522;2022-11-15T06:01:55;11.10;;;9.45;;
28762;SDS011;15918;51.270;6.522;2022-11-15T06:04:21;11.23;;;9.38;;
28762;SDS011;15918;51.270;6.522;2022-11-15T06:06:46;10.93;;;9.23;;
28762;SDS011;15918;51.270;6.522;2022-11-15T06:09:12;10.73;;;9.63;;
28762;SDS011;15918;51.270;6.522;2022-11-15T06:11:37;11.32;;;9.20;;
28762;SDS011;15918;51.270;6.522;2022-11-15T06:14:03;12.82;;;9.10;;
28762;SDS011;15918;51.270;6.522;2022-11-15T06:16:29;11.15;;;8.65;;
28762;SDS011;15918;51.270;6.522;2022-11-15T06:18:54;9.55;;;8.48;;
28762;SDS011;15918;51.270;6.522;2022-11-15T06:21:20;12.38;;;9.02;;
28762;SDS011;15918;51.270;6.522;2022-11-15T06:23:45;10.65;;;8.68;;
28762;SDS011;15918;51.270;6.522;2022-11-15T06:26:11;10.32;;;8.23;;
28762;SDS011;15918;51.270;6.522;2022-11-15T06:28:36;9.65;;;8.57;;
28762;SDS011;15918;51.270;6.522;2022-11-15T06:31:06;8.13;;;7.30;;
28762;SDS011;15918;51.270;6.522;2022-11-15T06:33:33;9.40;;;7.93;;
28762;SDS011;15918;51.270;6.522;2022-11-15T06:36:09;9.70;;;7.68;;
28762;SDS011;15918;51.270;6.522;2022-11-15T06:38:38;10.85;;;8.40;;
28762;SDS011;15918;51.270;6.522;2022-11-15T06:41:05;8.82;;;7.93;;
28762;SDS011;15918;51.270;6.522;2022-11-15T06:43:32;10.13;;;8.98;;
28762;SDS011;15918;51.270;6.522;2022-11-15T06:45:59;10.82;;;9.45;;
28762;SDS011;15918;51.270;6.522;2022-11-15T06:48:25;9.73;;;8.13;;
28762;SDS011;15918;51.270;6.522;2022-11-15T06:50:55;9.18;;;7.65;;
28762;SDS011;15918;51.270;6.522;2022-11-15T06:53:23;11.25;;;8.43;;
28762;SDS011;15918;51.270;6.522;2022-11-15T06:55:49;10.77;;;8.25;;
28762;SDS011;15918;51.270;6.522;2022-11-15T06:58:15;9.43;;;7.97;;
28762;SDS011;15918;51.270;6.522;2022-11-15T07:00:41;8.95;;;7.13;;
28762;SDS011;15918;51.270;6.522;2022-11-15T07:03:07;7.75;;;7.00;;
28762;SDS011;15918;51.270;6.522;2022-11-15T07:05:32;7.05;;;6.40;;
28762;SDS011;15918;51.270;6.522;2022-11-15T07:07:58;7.03;;;6.43;;
28762;SDS011;15918;51.270;6.522;2022-11-15T07:10:24;7.90;;;6.30;;
28762;SDS011;15918;51.270;6.522;2022-11-15T07:12:51;5.82;;;5.07;;
28762;SDS011;15918;51.270;6.522;2022-11-15T07:15:18;6.82;;;4.35;;
28762;SDS011;15918;51.270;6.522;2022-11-15T07:17:45;6.72;;;4.22;;
28762;SDS011;15918;51.270;6.522;2022-11-15T07:20:11;3.97;;;3.50;;
28762;SDS011;15918;51.270;6.522;2022-11-15T07:22:41;4.28;;;2.80;;
28762;SDS011;15918;51.270;6.522;2022-11-15T07:25:06;4.28;;;2.92;;
28762;SDS011;15918;51.270;6.522;2022-11-15T07:27:32;1.95;;;1.85;;
28762;SDS011;15918;51.270;6.522;2022-11-15T07:29:59;3.75;;;2.17;;
28762;SDS011;15918;51.270;6.522;2022-11-15T07:32:25;2.42;;;2.17;;
28762;SDS011;15918;51.270;6.522;2022-11-15T07:34:50;2.33;;;1.83;;
28762;SDS011;15918;51.270;6.522;2022-11-15T07:37:16;2.33;;;1.73;;
28762;SDS011;15918;51.270;6.522;2022-11-15T07:39:42;1.60;;;1.50;;
28762;SDS011;15918;51.270;6.522;2022-11-15T07:42:07;1.23;;;1.13;;
28762;SDS011;15918;51.270;6.522;2022-11-15T07:44:52;3.20;;;1.65;;
28762;SDS011;15918;51.270;6.522;2022-11-15T07:47:18;3.05;;;1.35;;
28762;SDS011;15918;51.270;6.522;2022-11-15T07:49:43;1.60;;;1.30;;
28762;SDS011;15918;51.270;6.522;2022-11-15T07:52:10;4.15;;;1.63;;
28762;SDS011;15918;51.270;6.522;2022-11-15T07:54:36;4.32;;;1.40;;
28762;SDS011;15918;51.270;6.522;2022-11-15T07:57:02;3.10;;;1.52;;
28762;SDS011;15918;51.270;6.522;2022-11-15T07:59:27;4.60;;;1.30;;
28762;SDS011;15918;51.270;6.522;2022-11-15T08:01:53;2.25;;;1.50;;
28762;SDS011;15918;51.270;6.522;2022-11-15T08:04:18;3.38;;;1.40;;
28762;SDS011;15918;51.270;6.522;2022-11-15T08:06:44;1.58;;;1.10;;
28762;SDS011;15918;51.270;6.522;2022-11-15T08:09:09;2.83;;;1.05;;
28762;SDS011;15918;51.270;6.522;2022-11-15T08:11:35;1.30;;;1.20;;
28762;SDS011;15918;51.270;6.522;2022-11-15T08:14:01;1.25;;;1.15;;
28762;SDS011;15918;51.270;6.522;2022-11-15T08:16:26;1.35;;;1.25;;
28762;SDS011;15918;51.270;6.522;2022-11-15T08:18:52;5.10;;;1.40;;
28762;SDS011;15918;51.270;6.522;2022-11-15T08:21:18;2.90;;;1.45;;
28762;SDS011;15918;51.270;6.522;2022-11-15T08:23:45;2.55;;;1.23;;
28762;SDS011;15918;51.270;6.522;2022-11-15T08:26:11;1.55;;;1.10;;
28762;SDS011;15918;51.270;6.522;2022-11-15T08:28:37;2.08;;;1.17;;
28762;SDS011;15918;51.270;6.522;2022-11-15T08:31:03;2.30;;;1.27;;
28762;SDS011;15918;51.270;6.522;2022-11-15T08:33:29;1.88;;;1.40;;
28762;SDS011;15918;51.270;6.522;2022-11-15T08:35:56;2.08;;;1.20;;
28762;SDS011;15918;51.270;6.522;2022-11-15T08:38:22;1.80;;;1.20;;
28762;SDS011;15918;51.270;6.522;2022-11-15T08:40:48;2.40;;;1.40;;
28762;SDS011;15918;51.270;6.522;2022-11-15T08:43:15;2.95;;;1.50;;
28762;SDS011;15918;51.270;6.522;2022-11-15T08:45:41;1.50;;;1.40;;
28762;SDS011;15918;51.270;6.522;2022-11-15T08:48:06;1.30;;;1.20;;
28762;SDS011;15918;51.270;6.522;2022-11-15T08:50:32;1.85;;;1.10;;
28762;SDS011;15918;51.270;6.522;2022-11-15T08:52:58;1.40;;;1.30;;
28762;SDS011;15918;51.270;6.522;2022-11-15T08:55:29;1.92;;;1.38;;
28762;SDS011;15918;51.270;6.522;2022-11-15T08:57:56;2.05;;;1.27;;
28762;SDS011;15918;51.270;6.522;2022-11-15T09:00:23;2.83;;;1.17;;
28762;SDS011;15918;51.270;6.522;2022-11-15T09:02:48;1.40;;;1.20;;
28762;SDS011;15918;51.270;6.522;2022-11-15T09:05:14;1.58;;;1.30;;
28762;SDS011;15918;51.270;6.522;2022-11-15T09:07:40;3.42;;;1.65;;
28762;SDS011;15918;51.270;6.522;2022-11-15T09:10:06;2.72;;;1.17;;
28762;SDS011;15918;51.270;6.522;2022-11-15T09:12:32;2.47;;;1.33;;
28762;SDS011;15918;51.270;6.522;2022-11-15T09:14:57;1.83;;;1.10;;
28762;SDS011;15918;51.270;6.522;2022-11-15T09:17:23;1.98;;;1.10;;
28762;SDS011;15918;51.270;6.522;2022-11-15T09:19:49;4.07;;;1.00;;
28762;SDS011;15918;51.270;6.522;2022-11-15T09:22:14;1.25;;;1.15;;
28762;SDS011;15918;51.270;6.522;2022-11-15T09:24:40;2.08;;;1.10;;
28762;SDS011;15918;51.270;6.522;2022-11-15T09:27:05;1.95;;;1.02;;
28762;SDS011;15918;51.270;6.522;2022-11-15T09:29:31;3.00;;;1.20;;
28762;SDS011;15918;51.270;6.522;2022-11-15T09:31:56;1.65;;;1.55;;
28762;SDS011;15918;51.270;6.522;2022-11-15T09:34:22;3.22;;;1.40;;
28762;SDS011;15918;51.270;6.522;2022-11-15T09:36:48;2.53;;;1.50;;
28762;SDS011;15918;51.270;6.522;2022-11-15T09:39:13;3.28;;;1.38;;
28762;SDS011;15918;51.270;6.522;2022-11-15T09:44:49;2.00;;;1.40;;
28762;SDS011;15918;51.270;6.522;2022-11-15T09:47:36;2.60;;;1.80;;
28762;SDS011;15918;51.270;6.522;2022-11-15T09:50:11;3.25;;;1.60;;
28762;SDS011;15918;51.270;6.522;2022-11-15T09:52:39;4.93;;;1.98;;
28762;SDS011;15918;51.270;6.522;2022-11-15T09:55:09;2.38;;;1.70;;
28762;SDS011;15918;51.270;6.522;2022-11-15T09:57:39;3.67;;;2.40;;
28762;SDS011;15918;51.270;6.522;2022-11-15T10:00:17;3.42;;;2.00;;
28762;SDS011;15918;51.270;6.522;2022-11-15T10:03:09;2.80;;;1.90;;
28762;SDS011;15918;51.270;6.522;2022-11-15T10:05:44;3.10;;;1.98;;
28762;SDS011;15918;51.270;6.522;2022-11-15T10:10:51;4.68;;;2.35;;
28762;SDS011;15918;51.270;6.522;2022-11-15T10:13:25;5.68;;;2.17;;
28762;SDS011;15918;51.270;6.522;2022-11-15T10:15:54;7.40;;;1.83;;
28762;SDS011;15918;51.270;6.522;2022-11-15T10:18:36;6.65;;;1.92;;
28762;SDS011;15918;51.270;6.522;2022-11-15T10:21:17;3.67;;;1.77;;
28762;SDS011;15918;51.270;6.522;2022-11-15T10:23:48;4.65;;;2.10;;
28762;SDS011;15918;51.270;6.522;2022-11-15T10:26:16;3.88;;;1.88;;
28762;SDS011;15918;51.270;6.522;2022-11-15T10:28:42;3.00;;;1.85;;
28762;SDS011;15918;51.270;6.522;2022-11-15T10:31:25;3.25;;;1.70;;
28762;SDS011;15918;51.270;6.522;2022-11-15T10:36:44;2.10;;;1.52;;
28762;SDS011;15918;51.270;6.522;2022-11-15T10:39:19;3.75;;;1.70;;
28762;SDS011;15918;51.270;6.522;2022-11-15T10:41:44;2.70;;;1.42;;
28762;SDS011;15918;51.270;6.522;2022-11-15T10:46:41;6.32;;;1.63;;
28762;SDS011;15918;51.270;6.522;2022-11-15T10:49:19;4.75;;;1.60;;
28762;SDS011;15918;51.270;6.522;2022-11-15T10:51:51;3.50;;;1.45;;
28762;SDS011;15918;51.270;6.522;2022-11-15T10:57:13;4.72;;;1.55;;
28762;SDS011;15918;51.270;6.522;2022-11-15T10:59:42;2.22;;;1.20;;
28762;SDS011;15918;51.270;6.522;2022-11-15T11:05:31;5.18;;;2.15;;
28762;SDS011;15918;51.270;6.522;2022-11-15T11:08:19;2.75;;;1.83;;
28762;SDS011;15918;51.270;6.522;2022-11-15T11:10:58;2.22;;;1.20;;
28762;SDS011;15918;51.270;6.522;2022-11-15T11:24:12;1.75;;;1.15;;
28762;SDS011;15918;51.270;6.522;2022-11-15T11:26:51;2.50;;;1.15;;
28762;SDS011;15918;51.270;6.522;2022-11-15T11:29:36;2.75;;;1.00;;
28762;SDS011;15918;51.270;6.522;2022-11-15T11:32:19;2.90;;;1.30;;
28762;SDS011;15918;51.270;6.522;2022-11-15T11:34:56;3.28;;;0.95;;
28762;SDS011;15918;51.270;6.522;2022-11-15T11:40:34;4.65;;;1.00;;
28762;SDS011;15918;51.270;6.522;2022-11-15T11:43:10;3.58;;;1.08;;
28762;SDS011;15918;51.270;6.522;2022-11-15T11:49:09;4.88;;;1.17;;
28762;SDS011;15918;51.270;6.522;2022-11-15T11:51:43;5.43;;;1.40;;
28762;SDS011;15918;51.270;6.522;2022-11-15T11:54:17;6.03;;;1.48;;
28762;SDS011;15918;51.270;6.522;2022-11-15T11:56:50;3.08;;;1.10;;
28762;SDS011;15918;51.270;6.522;2022-11-15T12:01:56;5.90;;;1.33;;
28762;SDS011;15918;51.270;6.522;2022-11-15T12:04:30;3.55;;;1.50;;
28762;SDS011;15918;51.270;6.522;2022-11-15T12:07:13;3.05;;;1.20;;
28762;SDS011;15918;51.270;6.522;2022-11-15T12:15:20;4.03;;;1.17;;
28762;SDS011;15918;51.270;6.522;2022-11-15T12:17:49;3.00;;;1.13;;
28762;SDS011;15918;51.270;6.522;2022-11-15T12:20:16;5.22;;;0.88;;
28762;SDS011;15918;51.270;6.522;2022-11-15T12:22:57;4.35;;;1.38;;
28762;SDS011;15918;51.270;6.522;2022-11-15T12:30:55;4.72;;;1.20;;
28762;SDS011;15918;51.270;6.522;2022-11-15T12:33:37;2.67;;;1.35;;
28762;SDS011;15918;51.270;6.522;2022-11-15T12:36:08;2.78;;;1.08;;
28762;SDS011;15918;51.270;6.522;2022-11-15T12:43:58;4.20;;;0.95;;
28762;SDS011;15918;51.270;6.522;2022-11-15T12:48:55;4.28;;;1.20;;
28762;SDS011;15918;51.270;6.522;2022-11-15T12:51:23;3.75;;;1.15;;
28762;SDS011;15918;51.270;6.522;2022-11-15T12:54:47;4.60;;;1.17;;
28762;SDS011;15918;51.270;6.522;2022-11-15T13:17:45;4.28;;;1.45;;
28762;SDS011;15918;51.270;6.522;2022-11-15T13:22:48;2.90;;;1.40;;
28762;SDS011;15918;51.270;6.522;2022-11-15T13:30:52;4.28;;;1.55;;
28762;SDS011;15918;51.270;6.522;2022-11-15T13:33:20;4.38;;;1.40;;
28762;SDS011;15918;51.270;6.522;2022-11-15T13:38:32;4.43;;;1.90;;
28762;SDS011;15918;51.270;6.522;2022-11-15T13:41:00;5.38;;;1.40;;
28762;SDS011;15918;51.270;6.522;2022-11-15T13:43:39;4.72;;;1.88;;
28762;SDS011;15918;51.270;6.522;2022-11-15T13:48:50;5.00;;;1.80;;
28762;SDS011;15918;51.270;6.522;2022-11-15T13:51:25;4.53;;;1.60;;
28762;SDS011;15918;51.270;6.522;2022-11-15T13:53:55;4.72;;;1.40;;
28762;SDS011;15918;51.270;6.522;2022-11-15T13:58:56;4.60;;;1.33;;
28762;SDS011;15918;51.270;6.522;2022-11-15T14:01:22;3.80;;;1.10;;
28762;SDS011;15918;51.270;6.522;2022-11-15T14:03:53;4.45;;;1.30;;
28762;SDS011;15918;51.270;6.522;2022-11-15T14:06:24;7.43;;;2.10;;
28762;SDS011;15918;51.270;6.522;2022-11-15T14:11:55;3.38;;;1.40;;
28762;SDS011;15918;51.270;6.522;2022-11-15T14:14:25;2.67;;;1.25;;
28762;SDS011;15918;51.270;6.522;2022-11-15T14:16:59;6.85;;;2.03;;
28762;SDS011;15918;51.270;6.522;2022-11-15T14:22:14;6.50;;;1.83;;
28762;SDS011;15918;51.270;6.522;2022-11-15T14:24:41;3.38;;;1.50;;
28762;SDS011;15918;51.270;6.522;2022-11-15T14:29:45;4.25;;;1.75;;
28762;SDS011;15918;51.270;6.522;2022-11-15T14:32:15;2.97;;;1.40;;
28762;SDS011;15918;51.270;6.522;2022-11-15T14:34:55;3.03;;;1.27;;
28762;SDS011;15918;51.270;6.522;2022-11-15T14:37:25;5.80;;;2.00;;
28762;SDS011;15918;51.270;6.522;2022-11-15T14:39:52;4.55;;;1.73;;
28762;SDS011;15918;51.270;6.522;2022-11-15T14:42:18;4.63;;;1.42;;
28762;SDS011;15918;51.270;6.522;2022-11-15T14:44:45;4.63;;;1.80;;
28762;SDS011;15918;51.270;6.522;2022-11-15T14:47:11;6.45;;;2.13;;
28762;SDS011;15918;51.270;6.522;2022-11-15T14:49:37;5.60;;;1.75;;
28762;SDS011;15918;51.270;6.522;2022-11-15T14:52:07;5.70;;;2.00;;
28762;SDS011;15918;51.270;6.522;2022-11-15T14:55:00;5.97;;;1.95;;
28762;SDS011;15918;51.270;6.522;2022-11-15T14:57:28;5.55;;;2.03;;
28762;SDS011;15918;51.270;6.522;2022-11-15T14:59:55;4.75;;;2.25;;
28762;SDS011;15918;51.270;6.522;2022-11-15T15:02:22;5.10;;;2.22;;
28762;SDS011;15918;51.270;6.522;2022-11-15T15:04:49;5.85;;;2.90;;
28762;SDS011;15918;51.270;6.522;2022-11-15T15:07:16;3.08;;;2.42;;
28762;SDS011;15918;51.270;6.522;2022-11-15T15:09:42;4.03;;;3.05;;
28762;SDS011;15918;51.270;6.522;2022-11-15T15:14:41;7.85;;;2.63;;
28762;SDS011;15918;51.270;6.522;2022-11-15T15:17:07;4.28;;;2.85;;
28762;SDS011;15918;51.270;6.522;2022-11-15T15:19:33;5.38;;;3.30;;
28762;SDS011;15918;51.270;6.522;2022-11-15T15:21:58;3.75;;;2.83;;
28762;SDS011;15918;51.270;6.522;2022-11-15T15:24:24;4.55;;;3.42;;
28762;SDS011;15918;51.270;6.522;2022-11-15T15:26:49;6.00;;;3.33;;
28762;SDS011;15918;51.270;6.522;2022-11-15T15:29:15;8.07;;;3.22;;
28762;SDS011;15918;51.270;6.522;2022-11-15T15:31:40;5.35;;;3.30;;
28762;SDS011;15918;51.270;6.522;2022-11-15T15:34:06;4.75;;;3.08;;
28762;SDS011;15918;51.270;6.522;2022-11-15T15:36:32;3.03;;;2.72;;
28762;SDS011;15918;51.270;6.522;2022-11-15T15:38:57;6.65;;;3.47;;
28762;SDS011;15918;51.270;6.522;2022-11-15T15:41:23;5.25;;;3.30;;
28762;SDS011;15918;51.270;6.522;2022-11-15T15:43:48;4.07;;;3.10;;
28762;SDS011;15918;51.270;6.522;2022-11-15T15:46:15;7.22;;;3.90;;
28762;SDS011;15918;51.270;6.522;2022-11-15T15:48:42;7.28;;;3.40;;
28762;SDS011;15918;51.270;6.522;2022-11-15T15:51:08;5.82;;;3.70;;
28762;SDS011;15918;51.270;6.522;2022-11-15T15:53:34;7.25;;;3.80;;
28762;SDS011;15918;51.270;6.522;2022-11-15T15:56:00;6.80;;;4.50;;
28762;SDS011;15918;51.270;6.522;2022-11-15T15:58:26;8.10;;;5.03;;
28762;SDS011;15918;51.270;6.522;2022-11-15T16:00:52;9.82;;;4.53;;
28762;SDS011;15918;51.270;6.522;2022-11-15T16:03:17;4.60;;;3.97;;
28762;SDS011;15918;51.270;6.522;2022-11-15T16:05:43;5.28;;;4.00;;
28762;SDS011;15918;51.270;6.522;2022-11-15T16:08:27;5.03;;;3.92;;
28762;SDS011;15918;51.270;6.522;2022-11-15T16:10:54;6.88;;;3.88;;
28762;SDS011;15918;51.270;6.522;2022-11-15T16:13:20;5.10;;;3.53;;
28762;SDS011;15918;51.270;6.522;2022-11-15T16:15:45;4.70;;;3.38;;
28762;SDS011;15918;51.270;6.522;2022-11-15T16:18:15;7.45;;;3.83;;
28762;SDS011;15918;51.270;6.522;2022-11-15T16:20:43;4.65;;;3.33;;
28762;SDS011;15918;51.270;6.522;2022-11-15T16:23:15;5.18;;;3.40;;
28762;SDS011;15918;51.270;6.522;2022-11-15T16:28:19;5.60;;;3.15;;
28762;SDS011;15918;51.270;6.522;2022-11-15T16:31:25;7.68;;;3.05;;
28762;SDS011;15918;51.270;6.522;2022-11-15T16:33:46;5.57;;;3.25;;
28762;SDS011;15918;51.270;6.522;2022-11-15T16:36:21;5.13;;;3.10;;
28762;SDS011;15918;51.270;6.522;2022-11-15T16:38:53;4.30;;;2.70;;
28762;SDS011;15918;51.270;6.522;2022-11-15T16:41:18;4.88;;;2.63;;
28762;SDS011;15918;51.270;6.522;2022-11-15T16:43:45;2.65;;;2.40;;
28762;SDS011;15918;51.270;6.522;2022-11-15T16:46:16;7.35;;;3.20;;
28762;SDS011;15918;51.270;6.522;2022-11-15T16:48:49;3.45;;;2.60;;
28762;SDS011;15918;51.270;6.522;2022-11-15T16:51:15;3.70;;;2.35;;
28762;SDS011;15918;51.270;6.522;2022-11-15T16:53:41;3.22;;;2.40;;
28762;SDS011;15918;51.270;6.522;2022-11-15T16:58:51;5.18;;;2.30;;
28762;SDS011;15918;51.270;6.522;2022-11-15T17:01:43;3.25;;;2.38;;
28762;SDS011;15918;51.270;6.522;2022-11-15T17:04:14;3.13;;;2.17;;
28762;SDS011;15918;51.270;6.522;2022-11-15T17:06:42;3.47;;;2.60;;
28762;SDS011;15918;51.270;6.522;2022-11-15T17:09:13;5.45;;;2.75;;
28762;SDS011;15918;51.270;6.522;2022-11-15T17:11:40;3.80;;;2.40;;
28762;SDS011;15918;51.270;6.522;2022-11-15T17:14:06;4.47;;;2.72;;
28762;SDS011;15918;51.270;6.522;2022-11-15T17:16:32;5.20;;;2.67;;
28762;SDS011;15918;51.270;6.522;2022-11-15T17:18:59;4.47;;;2.35;;